createdAt,value
2022-10-11T00:02:59.576Z,6.7
2022-10-11T00:13:00.528Z,6.5
2022-10-11T00:23:00.870Z,6.4
2022-10-11T00:33:01.838Z,6.3
2022-10-11T00:43:02.690Z,6.2
2022-10-11T00:53:03.329Z,6.1
2022-10-11T02:13:08.238Z,6.1
2022-10-11T02:33:10.163Z,5.6
2022-10-11T03:13:16.065Z,5.5
2022-10-11T03:23:13.085Z,5.2
2022-10-11T03:33:13.506Z,5.2
2022-10-11T03:43:14.378Z,5.1
2022-10-11T03:53:14.491Z,4.9
2022-10-11T04:03:15.562Z,4.8
2022-10-11T04:23:17.362Z,4.9
2022-10-11T04:33:17.788Z,5
2022-10-11T04:43:18.555Z,5.2
2022-10-11T05:53:22.908Z,4.8
2022-10-11T06:03:23.374Z,4.9
2022-10-11T06:13:23.950Z,4.9
2022-10-11T06:23:24.670Z,5
2022-10-11T06:33:24.817Z,5
2022-10-11T06:43:25.774Z,5.2
2022-10-11T06:53:25.893Z,5.4
2022-10-11T07:03:26.141Z,5.8
2022-10-11T07:13:26.933Z,6.4
2022-10-11T07:23:27.329Z,6.8
2022-10-11T07:33:27.972Z,7.4
2022-10-11T07:43:28.132Z,8.1
2022-10-11T07:53:29.082Z,8.3
2022-10-11T08:03:29.706Z,8.9
2022-10-11T08:13:30.266Z,9.1
2022-10-11T08:23:30.703Z,9.9
2022-10-11T08:33:31.342Z,10.6
2022-10-11T08:43:31.891Z,11.5
2022-10-11T08:53:32.640Z,12
2022-10-11T09:03:32.855Z,12
2022-10-11T09:13:33.319Z,12.6
2022-10-11T09:33:34.817Z,13.5
2022-10-11T09:53:35.797Z,14.3
2022-10-11T10:03:36.549Z,14.2
2022-10-11T10:13:36.825Z,14.2
2022-10-11T10:23:37.621Z,14.5
2022-10-11T10:33:37.854Z,14.9
2022-10-11T10:43:38.294Z,15.2
2022-10-11T10:53:38.807Z,15
2022-10-11T11:03:39.088Z,14.6
2022-10-11T11:13:39.814Z,15
2022-10-11T12:03:43.061Z,16.4
2022-10-11T12:13:43.741Z,16.1
2022-10-11T12:33:44.957Z,16.4
2022-10-11T12:53:48.170Z,16.6
2022-10-11T13:03:47.163Z,16.8
2022-10-11T13:13:47.653Z,16.7
2022-10-11T13:23:48.540Z,16.6
2022-10-11T13:43:49.918Z,15.7
2022-10-11T13:53:50.407Z,15
2022-10-11T14:13:52.062Z,14.4
2022-10-11T14:33:53.411Z,15.9
2022-10-11T14:53:54.003Z,15.8
2022-10-11T15:03:54.170Z,16.5
2022-10-11T15:13:54.993Z,16.5
2022-10-11T15:23:55.292Z,16
2022-10-11T15:33:56.287Z,15.5
2022-10-11T15:43:56.939Z,14.9
2022-10-11T16:03:58.491Z,14.4
2022-10-11T16:13:58.655Z,13.9
2022-10-11T16:23:59.142Z,13.5
2022-10-11T16:34:00.020Z,12.7
2022-10-11T16:44:00.505Z,12
2022-10-11T16:54:00.671Z,11.3
2022-10-11T17:04:01.786Z,11
2022-10-11T17:14:02.756Z,10.5
2022-10-11T17:24:03.741Z,10.1
2022-10-11T17:34:04.439Z,9.7
2022-10-11T17:44:05.028Z,9.4
2022-10-11T17:54:06.006Z,9
2022-10-11T18:04:06.514Z,8.7
2022-10-11T18:14:06.658Z,8.6
2022-10-11T18:24:07.484Z,8.2
2022-10-11T18:34:08.521Z,8
2022-10-11T18:44:09.409Z,7.8
2022-10-11T18:54:10.099Z,7.6
2022-10-11T19:04:11.080Z,7.3
2022-10-11T19:14:12.163Z,7.2
2022-10-11T19:34:13.677Z,6.8
2022-10-11T19:44:14.355Z,6.6
2022-10-11T19:54:14.588Z,6.5
2022-10-11T20:04:27.723Z,6.3
2022-10-11T20:14:15.029Z,6.2
2022-10-11T20:24:16.109Z,6
2022-10-11T20:34:17.058Z,5.9
2022-10-11T20:44:17.433Z,5.8
2022-10-11T20:54:18.113Z,5.7
2022-10-11T21:04:19.075Z,5.5
2022-10-11T21:14:20.187Z,5.4
2022-10-11T21:24:20.292Z,5.4
2022-10-11T21:34:20.903Z,5.2
2022-10-11T21:44:21.929Z,5.1
2022-10-11T21:54:23.002Z,5
2022-10-11T22:04:23.950Z,5
2022-10-11T22:14:24.828Z,4.9
2022-10-11T22:24:25.896Z,4.9
2022-10-11T22:34:26.275Z,4.7
2022-10-11T22:44:26.405Z,4.6
2022-10-11T22:54:26.788Z,4.4
2022-10-11T23:04:27.593Z,4.4
2022-10-11T23:14:28.256Z,4.3
2022-10-11T23:34:29.064Z,4.1
2022-10-11T23:44:29.410Z,3.9
2022-10-11T23:54:29.519Z,3.9
